• Join FlightAware (Why Join?)
  • Login
  • US Flag 
12:01PM EDT


 

Airport Tracker/Info


-or-


 

Live Flight TrackerFlight Track Log ✈ UAL3779 ✈ 15-Apr-2013 ✈ KOKC - KORD

Flight Track Log - Related Links

Times and Time Zones

All times are in EDT time to prevent confusion due to time zone crossing. See the UAL3779 flight status page for this flight to view local times or setup timezone preferences in your user account.

Time Position Orientation Groundspeed Altitude Reporting Facility
EDT Latitude Longitude Course Direction KTS MPH feet Rate Location/Type
07:04AM 35.4436 -97.6047 50° Northeast 175 201 3,500  Level Fort Worth Center
07:07AM 35.5564 -97.4403 50° Northeast 310 357 8,100 2,100 Climbing Kansas City Center
07:08AM 35.5978 -97.3358 64° Northeast 330 380 10,800 2,280 Climbing Kansas City Center
07:09AM 35.6422 -97.2225 64° Northeast 356 410 12,800 2,160 Climbing Kansas City Center
07:10AM 35.6897 -97.1028 64° Northeast 380 437 15,200 2,160 Climbing Kansas City Center
07:11AM 35.7369 -96.9806 65° Northeast 392 451 17,100 1,920 Climbing Kansas City Center
07:12AM 35.7889 -96.8497 64° Northeast 415 478 19,200 2,160 Climbing Kansas City Center
07:13AM 35.8400 -96.7167 65° Northeast 427 491 21,500 2,160 Climbing Kansas City Center
07:14AM 35.8919 -96.5839 64° Northeast 430 495 23,500 1,800 Climbing Kansas City Center
07:15AM 35.9447 -96.4478 64° Northeast 438 504 25,200 1,560 Climbing Kansas City Center
07:16AM 35.9914 -96.3250 65° Northeast 445 512 26,700 1,380 Climbing Kansas City Center
07:17AM 36.0467 -96.1842 64° Northeast 452 520 28,100 1,440 Climbing Kansas City Center
07:18AM 36.1139 -96.0083 65° Northeast 467 537 29,600 1,320 Climbing Kansas City Center
07:19AM 36.1706 -95.8589 65° Northeast 477 549 30,800 1,080 Climbing Kansas City Center
07:20AM 36.2258 -95.7233 63° Northeast 484 557 31,900 1,080 Climbing Kansas City Center
07:21AM 36.2978 -95.5808 58° Northeast 488 562 33,100 1,200 Climbing Kansas City Center
07:22AM 36.3683 -95.4350 59° Northeast 490 564 34,300 1,140 Climbing Kansas City Center
07:23AM 36.4367 -95.2892 60° Northeast 492 566 35,500 1,020 Climbing Kansas City Center
07:24AM 36.5056 -95.1478 59° Northeast 483 556 36,500 720 Climbing Kansas City Center
07:25AM 36.5750 -95.0019 59° Northeast 482 555 37,000 240 Climbing Kansas City Center
07:26AM 36.6453 -94.8525 60° Northeast 492 566 37,000  Level Kansas City Center
07:27AM 36.7181 -94.6992 59° Northeast 507 583 37,000  Level Kansas City Center
07:28AM 36.7919 -94.5433 59° Northeast 517 595 37,000  Level Kansas City Center
07:29AM 36.9006 -94.3786 50° Northeast 513 590 37,000  Level Kansas City Center
07:30AM 37.0122 -94.2708 38° Northeast 506 582 37,000  Level Kansas City Center
07:31AM 37.1233 -94.1633 38° Northeast 505 581 37,000  Level Kansas City Center
07:32AM 37.2214 -94.0681 38° Northeast 505 581 37,000  Level Kansas City Center
07:33AM 37.3328 -93.9583 38° Northeast 506 582 37,000  Level Kansas City Center
07:34AM 37.4436 -93.8486 38° Northeast 505 581 37,000  Level Kansas City Center
07:35AM 37.5528 -93.7403 38° Northeast 500 575 37,000  Level Kansas City Center
07:36AM 37.6608 -93.6319 38° Northeast 495 570 37,000  Level Kansas City Center
07:37AM 37.7656 -93.5228 39° Northeast 489 563 37,000  Level Kansas City Center
07:38AM 37.8950 -93.3917 39° Northeast 491 565 37,000  Level Kansas City Center
07:39AM 38.0025 -93.2833 38° Northeast 491 565 37,000  Level Kansas City Center
07:40AM 38.1108 -93.1717 39° Northeast 494 568 37,000  Level Kansas City Center
07:41AM 38.2219 -93.0608 38° Northeast 498 573 37,000  Level Kansas City Center
07:42AM 38.3311 -92.9475 39° Northeast 501 577 37,000  Level Kansas City Center
07:43AM 38.4411 -92.8347 39° Northeast 501 577 37,000  Level Kansas City Center
07:44AM 38.5500 -92.7219 39° Northeast 500 575 37,000  Level Kansas City Center
07:45AM 38.6569 -92.6089 40° Northeast 496 571 37,000  Level Kansas City Center
07:46AM 38.7664 -92.4953 39° Northeast 499 574 37,000  Level Kansas City Center
07:47AM 38.8703 -92.3733 42° Northeast 502 578 37,000  Level Kansas City Center
07:48AM 38.9617 -92.2311 50° Northeast 507 583 37,000  Level Kansas City Center
07:49AM 39.0553 -92.0917 49° Northeast 509 586 37,000  Level Kansas City Center
07:50AM 39.1469 -91.9481 51° Northeast 513 590 37,000  Level Kansas City Center
07:51AM 39.2403 -91.8083 49° Northeast 513 590 37,000 -300 Level Kansas City Center
07:52AM 39.3364 -91.6603 50° Northeast 520 598 36,400 -900 Descending Kansas City Center
07:53AM 39.4300 -91.5167 50° Northeast 523 602 35,300 -1,080 Descending Kansas City Center
07:54AM 39.5256 -91.3683 50° Northeast 522 601 34,200 -660 Descending Kansas City Center
07:55AM 39.6164 -91.2269 50° Northeast 522 601 34,000 -120 Descending Kansas City Center
07:56AM 39.7122 -91.0806 50° Northeast 526 605 34,000 -300 Level Kansas City Center
07:57AM 39.8244 -90.9653 38° Northeast 521 600 33,500 -480 Descending Kansas City Center
07:58AM 39.9539 -90.8350 38° Northeast 521 600 33,000 -300 Descending Kansas City Center
07:59AM 40.0678 -90.7194 38° Northeast 519 597 33,000  Level Kansas City Center
08:00AM 40.1636 -90.6233 37° Northeast 520 598 33,000  Level Chicago Center
08:01AM 40.2642 -90.4908 45° Northeast 529 609 33,000  Level Chicago Center
08:02AM 40.3636 -90.3522 47° Northeast 523 602 33,000  Level Chicago Center
08:03AM 40.4694 -90.2061 46° Northeast 525 604 33,000  Level Chicago Center
08:04AM 40.5653 -90.0653 48° Northeast 520 598 33,000 -180 Level Chicago Center
08:05AM 40.6675 -89.9283 45° Northeast 524 603 32,700 -1,620 Descending Chicago Center
08:06AM 40.7844 -89.7608 47° Northeast 520 598 29,700 -2,700 Descending Chicago Center
08:07AM 40.8822 -89.6239 47° Northeast 514 592 27,200 -2,400 Descending Chicago Center
08:08AM 40.9669 -89.5019 47° Northeast 517 595 24,900 -1,560 Descending Chicago Center
08:09AM 41.0831 -89.3378 47° Northeast 506 582 24,000 -1,620 Descending Chicago Center
08:10AM 41.1764 -89.2019 48° Northeast 498 573 21,600 -2,460 Descending Chicago Center
08:11AM 41.2606 -89.0792 48° Northeast 489 563 19,000 -2,940 Descending Chicago Center
08:12AM 41.3606 -88.9311 48° Northeast 445 512 15,600 -2,880 Descending Chicago Center
08:13AM 41.4361 -88.8231 47° Northeast 405 466 13,100 -2,220 Descending Chicago Center
08:14AM 41.5078 -88.7164 48° Northeast 388 447 11,100 -1,080 Descending Chicago Center
08:16AM 41.5589 -88.5917 61° Northeast 385 443 11,000 -540 Descending Chicago Center
08:17AM 41.6122 -88.4633 61° Northeast 392 451 10,100 -540 Descending Chicago Center
08:18AM 41.6794 -88.3458 53° Northeast 394 453 10,000 -60 Descending Chicago Center
08:19AM 41.7461 -88.2331 52° Northeast 386 444 10,000 -480 Level Chicago Center
08:20AM 41.8008 -88.1372 53° Northeast 328 377 9,100 -1,380 Descending Chicago Center
08:21AM 41.8961 -88.1144 10° North 303 349 7,200 -1,020 Descending Chicago Center
08:22AM 41.9789 -88.1150 360° North 298 343 7,000 -720 Descending Chicago Center
08:23AM 42.0492 -88.1650 332° Northwest 293 337 5,800 -1,140 Descending Chicago Center
08:24AM 42.1142 -88.1617 North 274 315 4,700 -1,260 Descending Chicago Center
08:25AM 42.1000 -88.0667 101° East 230 265 3,100 -1,020 Descending Chicago TRACON
08:26AM 42.0667 -88.0167 132° Southeast 174 200 2,600 -540 Descending Chicago TRACON
08:28AM 42.0044 -87.9503 142° Southeast 168 193 1,500 -600 Descending Chicago Center
08:30AM 41.9817 -87.9067 73° East  Level Estimated